createdAt,value
2022-08-05T00:00:16.285Z,61.00
2022-08-05T00:02:49.149Z,61.10
2022-08-05T00:06:02.133Z,61.00
2022-08-05T00:08:06.222Z,61.10
2022-08-05T00:10:52.596Z,61.20
2022-08-05T00:13:19.869Z,61.30
2022-08-05T00:15:54.948Z,61.40
2022-08-05T00:18:23.190Z,61.50
2022-08-05T00:20:51.547Z,61.50
2022-08-05T00:23:45.541Z,61.80
2022-08-05T00:26:07.604Z,62.30
2022-08-05T00:28:35.361Z,62.10
2022-08-05T00:31:04.443Z,63.00
2022-08-05T00:34:55.197Z,62.20
2022-08-05T00:37:11.419Z,62.30
2022-08-05T00:39:06.164Z,62.80
2022-08-05T00:41:51.712Z,62.80
2022-08-05T00:44:23.170Z,62.90
2022-08-05T00:46:54.111Z,62.90
2022-08-05T00:49:32.559Z,63.00
2022-08-05T00:52:11.008Z,62.90
2022-08-05T00:54:38.734Z,63.10
2022-08-05T00:57:05.641Z,63.10
2022-08-05T00:59:34.733Z,63.10
2022-08-05T01:02:11.664Z,63.30
2022-08-05T01:04:38.357Z,63.40
2022-08-05T01:07:13.829Z,63.30
2022-08-05T01:09:41.873Z,63.40
2022-08-05T01:12:18.293Z,63.60
2022-08-05T01:14:49.258Z,63.50
2022-08-05T01:17:32.163Z,63.70
2022-08-05T01:20:31.364Z,63.70
2022-08-05T01:23:14.964Z,63.90
2022-08-05T01:25:53.790Z,63.80
2022-08-05T01:28:43.796Z,63.90
2022-08-05T01:31:16.557Z,63.80
2022-08-05T01:33:53.616Z,64.00
2022-08-05T01:36:28.333Z,63.90
2022-08-05T01:38:56.402Z,63.90
2022-08-05T01:41:30.991Z,64.90
2022-08-05T01:44:02.032Z,64.00
2022-08-05T01:46:42.777Z,64.00
2022-08-05T01:49:24.417Z,64.10
2022-08-05T01:51:58.448Z,64.00
2022-08-05T01:54:34.362Z,64.20
2022-08-05T01:58:09.367Z,64.60
2022-08-05T02:00:05.551Z,64.80
2022-08-05T02:02:55.107Z,64.70
2022-08-05T02:05:28.569Z,64.60
2022-08-05T02:08:00.006Z,64.60
2022-08-05T02:10:34.757Z,64.70
2022-08-05T02:13:48.798Z,64.50
2022-08-05T02:16:28.026Z,64.50
2022-08-05T02:19:15.637Z,64.50
2022-08-05T02:21:59.550Z,64.40
2022-08-05T02:24:32.332Z,64.30
2022-08-05T02:27:01.834Z,64.40
2022-08-05T02:29:59.752Z,64.50
2022-08-05T02:32:29.186Z,64.50
2022-08-05T02:35:13.718Z,64.70
2022-08-05T02:37:47.642Z,64.50
2022-08-05T02:40:17.029Z,64.70
2022-08-05T02:42:44.836Z,64.70
2022-08-05T02:45:24.229Z,64.70
2022-08-05T02:48:06.958Z,64.60
2022-08-05T02:50:43.902Z,64.60
2022-08-05T02:53:18.824Z,64.90
2022-08-05T02:55:54.093Z,65.00
2022-08-05T02:58:26.764Z,64.90
2022-08-05T03:00:56.549Z,65.00
2022-08-05T03:03:23.912Z,65.10
2022-08-05T03:06:56.159Z,65.20
2022-08-05T03:08:43.155Z,65.20
2022-08-05T03:11:57.079Z,65.20
2022-08-05T03:14:13.265Z,65.20
2022-08-05T03:16:40.924Z,65.50
2022-08-05T03:19:12.964Z,65.50
2022-08-05T03:21:54.681Z,65.50
2022-08-05T03:24:29.598Z,65.50
2022-08-05T03:26:58.147Z,65.60
2022-08-05T03:29:24.934Z,65.60
2022-08-05T03:32:12.220Z,65.70
2022-08-05T03:34:42.454Z,65.90
2022-08-05T03:37:18.656Z,65.90
2022-08-05T03:40:01.425Z,66.00
2022-08-05T03:42:32.222Z,65.80
2022-08-05T03:44:59.743Z,65.90
2022-08-05T03:47:35.075Z,66.00
2022-08-05T03:50:02.310Z,66.00
2022-08-05T03:52:49.193Z,66.00
2022-08-05T03:56:01.369Z,66.10
2022-08-05T03:58:22.955Z,66.00
2022-08-05T04:00:57.709Z,66.10
2022-08-05T04:03:29.350Z,66.20
2022-08-05T04:05:57.963Z,66.30
2022-08-05T04:08:34.800Z,66.20
2022-08-05T04:11:05.966Z,66.20
2022-08-05T04:13:50.369Z,66.40
2022-08-05T04:16:24.066Z,66.50
2022-08-05T04:18:53.898Z,66.40
2022-08-05T04:22:08.235Z,66.70
2022-08-05T04:24:08.859Z,66.50
2022-08-05T04:26:36.048Z,66.60
2022-08-05T04:29:07.146Z,66.70
2022-08-05T04:31:38.807Z,66.80
2022-08-05T04:34:31.960Z,66.60
2022-08-05T04:36:53.117Z,66.80
2022-08-05T04:39:20.113Z,66.60
2022-08-05T04:41:48.114Z,66.40
2022-08-05T04:44:20.986Z,66.30
2022-08-05T04:46:51.060Z,66.30
2022-08-05T04:49:24.644Z,66.30
2022-08-05T04:52:06.445Z,66.10
2022-08-05T04:54:34.483Z,66.00
2022-08-05T04:57:01.551Z,65.90
2022-08-05T04:59:36.664Z,65.80
2022-08-05T05:02:37.369Z,65.70
2022-08-05T05:04:53.356Z,65.60
2022-08-05T05:07:29.785Z,65.60
2022-08-05T05:09:59.322Z,65.60
2022-08-05T05:12:29.274Z,65.90
2022-08-05T05:14:56.062Z,65.50
2022-08-05T05:17:24.689Z,65.50
2022-08-05T05:20:11.788Z,65.60
2022-08-05T05:22:41.013Z,65.80
2022-08-05T05:25:15.933Z,65.80
2022-08-05T05:27:45.543Z,65.50
2022-08-05T05:30:28.808Z,65.50
2022-08-05T05:32:57.323Z,65.70
2022-08-05T05:35:29.193Z,65.40
2022-08-05T05:38:03.415Z,65.10
2022-08-05T05:40:32.549Z,64.80
2022-08-05T05:43:02.072Z,64.40
2022-08-05T05:45:29.166Z,64.50
2022-08-05T05:48:06.950Z,64.70
2022-08-05T05:50:44.367Z,64.40
2022-08-05T05:53:22.168Z,64.10
2022-08-05T05:55:52.511Z,63.50
2022-08-05T05:58:31.814Z,63.50
2022-08-05T06:01:12.112Z,63.40
2022-08-05T06:04:00.345Z,62.80
2022-08-05T06:06:28.114Z,62.30
2022-08-05T06:08:58.562Z,61.70
2022-08-05T06:11:26.101Z,60.20
2022-08-05T06:13:55.601Z,60.50
2022-08-05T06:16:29.920Z,60.50
2022-08-05T06:19:00.818Z,59.30
2022-08-05T06:21:36.889Z,58.80
2022-08-05T06:24:07.696Z,58.80
2022-08-05T06:26:38.368Z,58.60
2022-08-05T06:29:23.604Z,59.00
2022-08-05T06:31:52.064Z,59.10
2022-08-05T06:34:20.051Z,59.50
2022-08-05T06:36:56.882Z,59.50
2022-08-05T06:39:27.674Z,60.10
2022-08-05T06:41:57.422Z,60.00
2022-08-05T06:44:26.081Z,60.80
2022-08-05T06:46:52.866Z,60.60
2022-08-05T06:50:01.982Z,59.20
2022-08-05T06:52:37.663Z,59.60
2022-08-05T06:54:54.930Z,58.50
2022-08-05T06:58:02.799Z,58.20
2022-08-05T07:00:09.652Z,58.00
2022-08-05T07:02:47.433Z,58.00
2022-08-05T07:05:23.417Z,57.30
2022-08-05T07:07:58.590Z,56.30
2022-08-05T07:10:32.402Z,56.20
2022-08-05T07:13:18.174Z,55.00
2022-08-05T07:17:55.923Z,53.40
2022-08-05T07:19:10.374Z,52.70
2022-08-05T07:21:59.951Z,51.90
2022-08-05T07:24:24.512Z,51.80
2022-08-05T07:26:55.518Z,51.00
2022-08-05T07:29:25.308Z,50.20
2022-08-05T07:32:09.002Z,50.40
2022-08-05T07:34:40.480Z,49.90
2022-08-05T07:37:09.146Z,49.60
2022-08-05T07:40:04.181Z,49.10
2022-08-05T07:42:31.786Z,49.30
2022-08-05T07:45:00.938Z,49.50
2022-08-05T07:47:27.668Z,48.80
2022-08-05T07:50:09.524Z,47.50
2022-08-05T07:52:45.384Z,47.10
2022-08-05T07:55:44.474Z,45.90
2022-08-05T07:58:03.007Z,45.50
2022-08-05T08:00:30.716Z,45.80
2022-08-05T08:03:15.004Z,45.40
2022-08-05T08:05:49.406Z,45.80
2022-08-05T08:08:19.863Z,46.10
2022-08-05T08:10:48.831Z,46.50
2022-08-05T08:13:16.021Z,44.90
2022-08-05T08:16:34.856Z,45.10
2022-08-05T08:18:35.547Z,44.50
2022-08-05T08:21:09.673Z,43.90
2022-08-05T08:24:01.970Z,45.70
2022-08-05T08:26:29.923Z,44.90
2022-08-05T08:28:59.862Z,44.10
2022-08-05T08:31:41.416Z,43.10
2022-08-05T08:34:09.805Z,44.20
2022-08-05T08:36:48.977Z,42.20
2022-08-05T08:39:23.421Z,42.20
2022-08-05T08:41:59.730Z,42.30
2022-08-05T08:45:23.973Z,41.20
2022-08-05T08:48:07.338Z,40.80
2022-08-05T08:50:32.016Z,40.60
2022-08-05T08:53:07.762Z,40.90
2022-08-05T08:56:04.015Z,41.50
2022-08-05T08:58:26.076Z,41.70
2022-08-05T09:01:05.553Z,41.50
2022-08-05T09:03:44.973Z,40.90
2022-08-05T09:06:16.990Z,40.50
2022-08-05T09:08:46.844Z,40.20
2022-08-05T09:11:14.974Z,40.90
2022-08-05T09:14:01.028Z,40.10
2022-08-05T09:16:29.962Z,40.60
2022-08-05T09:18:59.486Z,41.90
2022-08-05T09:22:21.853Z,39.70
2022-08-05T09:24:15.387Z,39.30
2022-08-05T09:26:46.237Z,38.40
2022-08-05T09:29:17.516Z,37.40
2022-08-05T09:32:41.970Z,37.60
2022-08-05T09:34:56.090Z,37.30
2022-08-05T09:38:17.182Z,38.50
2022-08-05T09:40:33.902Z,39.40
2022-08-05T09:43:01.745Z,39.50
2022-08-05T09:46:06.496Z,40.30
2022-08-05T09:48:31.353Z,40.40
2022-08-05T09:51:04.096Z,41.10
2022-08-05T09:53:53.355Z,40.20
2022-08-05T09:56:29.833Z,40.50
2022-08-05T09:59:05.809Z,41.00
2022-08-05T10:01:34.304Z,41.80
2022-08-05T10:04:10.335Z,42.30
2022-08-05T10:06:40.455Z,42.00
2022-08-05T10:09:25.113Z,42.20
2022-08-05T10:11:56.178Z,42.50
2022-08-05T10:14:32.206Z,43.10
2022-08-05T10:17:37.935Z,43.30
2022-08-05T10:20:10.834Z,43.40
2022-08-05T10:22:48.553Z,43.10
2022-08-05T10:25:19.077Z,43.10
2022-08-05T10:28:09.250Z,42.80
2022-08-05T10:32:49.510Z,41.80
2022-08-05T10:33:25.581Z,40.20
2022-08-05T10:35:59.665Z,39.10
2022-08-05T10:38:29.154Z,38.90
2022-08-05T10:41:08.961Z,39.20
2022-08-05T10:44:02.673Z,38.10
2022-08-05T10:46:46.149Z,37.20
2022-08-05T10:49:17.918Z,36.40
2022-08-05T10:52:00.237Z,35.00
2022-08-05T10:55:04.502Z,35.00
2022-08-05T10:57:33.643Z,33.90
2022-08-05T11:00:20.079Z,34.70
2022-08-05T11:02:59.205Z,34.90
2022-08-05T11:06:08.361Z,34.30
2022-08-05T11:09:32.056Z,34.00
2022-08-05T11:12:37.285Z,33.70
2022-08-05T11:15:20.791Z,33.40
2022-08-05T11:17:59.039Z,34.00
2022-08-05T11:20:43.978Z,34.00
2022-08-05T11:24:03.951Z,34.30
2022-08-05T11:26:32.378Z,34.40
2022-08-05T11:29:12.360Z,34.90
2022-08-05T11:31:56.485Z,35.80
2022-08-05T11:34:51.125Z,35.40
2022-08-05T11:38:36.952Z,35.10
2022-08-05T11:41:03.525Z,34.90
2022-08-05T11:44:12.294Z,35.70
2022-08-05T11:47:09.453Z,35.20
2022-08-05T11:49:33.772Z,35.30
2022-08-05T11:52:01.512Z,35.10
2022-08-05T11:54:38.142Z,34.20
2022-08-05T11:57:08.372Z,34.70
2022-08-05T11:59:52.271Z,34.70
2022-08-05T12:02:31.633Z,35.10
2022-08-05T12:05:01.256Z,35.00
2022-08-05T12:08:07.462Z,35.40
2022-08-05T12:10:42.925Z,36.60
2022-08-05T12:13:15.501Z,36.80
2022-08-05T12:15:49.961Z,37.20
2022-08-05T12:18:33.436Z,37.50
2022-08-05T12:21:15.187Z,38.70
2022-08-05T12:23:53.133Z,38.70
2022-08-05T12:26:19.943Z,39.50
2022-08-05T12:28:46.668Z,40.00
2022-08-05T12:31:23.696Z,39.00
2022-08-05T12:34:02.061Z,39.30
2022-08-05T12:36:30.785Z,39.10
2022-08-05T12:38:59.075Z,39.20
2022-08-05T12:41:34.432Z,39.20
2022-08-05T12:44:05.013Z,38.60
2022-08-05T12:46:39.990Z,38.70
2022-08-05T12:49:14.549Z,38.80
2022-08-05T12:52:13.825Z,39.20
2022-08-05T12:54:32.219Z,39.70
2022-08-05T12:57:09.401Z,38.50
2022-08-05T13:01:57.718Z,38.60
2022-08-05T13:02:40.015Z,37.20
2022-08-05T13:05:08.330Z,37.70
2022-08-05T13:08:00.010Z,36.90
2022-08-05T13:10:28.789Z,37.50
2022-08-05T13:12:58.148Z,36.90
2022-08-05T13:15:41.607Z,36.60
2022-08-05T13:18:19.810Z,36.70
2022-08-05T13:20:49.154Z,36.70
2022-08-05T13:23:22.033Z,36.80
2022-08-05T13:25:52.327Z,36.20
2022-08-05T13:28:26.981Z,35.90
2022-08-05T13:30:53.847Z,35.90
2022-08-05T13:34:24.286Z,37.00
2022-08-05T13:36:09.081Z,37.30
2022-08-05T13:38:38.403Z,36.80
2022-08-05T13:41:09.707Z,36.70
2022-08-05T13:43:44.822Z,37.20
2022-08-05T13:46:26.474Z,36.40
2022-08-05T13:49:04.811Z,35.50
2022-08-05T13:51:40.843Z,35.10
2022-08-05T13:54:11.819Z,33.90
2022-08-05T13:56:38.914Z,33.80
2022-08-05T13:59:20.464Z,34.20
2022-08-05T14:01:56.609Z,34.10
2022-08-05T14:04:50.057Z,34.30
2022-08-05T14:07:26.257Z,33.70
2022-08-05T14:10:18.341Z,33.60
2022-08-05T14:12:49.613Z,32.20
2022-08-05T14:16:06.161Z,31.80
2022-08-05T14:18:15.063Z,32.10
2022-08-05T14:20:47.864Z,32.50
2022-08-05T14:23:23.828Z,33.50
2022-08-05T14:25:54.554Z,34.40
2022-08-05T14:28:26.901Z,34.60
2022-08-05T14:30:54.944Z,35.00
2022-08-05T14:33:23.157Z,34.50
2022-08-05T14:35:51.684Z,35.20
2022-08-05T14:38:33.241Z,35.10
2022-08-05T14:41:06.879Z,35.60
2022-08-05T14:43:51.659Z,35.60
2022-08-05T14:46:29.124Z,35.50
2022-08-05T14:48:59.465Z,35.50
2022-08-05T14:51:28.316Z,36.20
2022-08-05T14:54:28.853Z,36.20
2022-08-05T14:56:48.027Z,36.40
2022-08-05T14:59:15.352Z,37.30
2022-08-05T15:01:48.529Z,38.00
2022-08-05T15:04:22.317Z,37.50
2022-08-05T15:06:52.906Z,37.00
2022-08-05T15:09:51.865Z,37.30
2022-08-05T15:12:09.480Z,38.00
2022-08-05T15:14:50.274Z,38.40
2022-08-05T15:17:45.680Z,38.30
2022-08-05T15:20:18.335Z,38.80
2022-08-05T15:22:46.338Z,38.80
2022-08-05T15:25:23.559Z,38.90
2022-08-05T15:28:08.924Z,39.50
2022-08-05T15:30:41.790Z,39.40
2022-08-05T15:33:10.366Z,39.30
2022-08-05T15:35:45.306Z,38.90
2022-08-05T15:38:35.966Z,39.00
2022-08-05T15:41:21.949Z,39.40
2022-08-05T15:43:47.954Z,39.30
2022-08-05T15:46:14.805Z,39.00
2022-08-05T15:48:53.008Z,38.50
2022-08-05T15:52:13.901Z,38.90
2022-08-05T15:54:16.816Z,38.90
2022-08-05T15:56:43.760Z,39.00
2022-08-05T15:59:22.020Z,39.10
2022-08-05T16:01:52.786Z,39.40
2022-08-05T16:04:25.747Z,39.70
2022-08-05T16:06:53.574Z,39.40
2022-08-05T16:09:23.514Z,39.40
2022-08-05T16:11:53.731Z,39.30
2022-08-05T16:14:21.723Z,38.70
2022-08-05T16:16:49.481Z,38.80
2022-08-05T16:19:25.450Z,38.70
2022-08-05T16:22:03.841Z,39.10
2022-08-05T16:24:41.329Z,39.20
2022-08-05T16:27:18.048Z,39.00
2022-08-05T16:29:50.937Z,38.60
2022-08-05T16:32:23.301Z,38.50
2022-08-05T16:34:56.597Z,38.50
2022-08-05T16:38:14.956Z,38.30
2022-08-05T16:40:13.407Z,37.80
2022-08-05T16:42:52.038Z,37.40
2022-08-05T16:46:07.765Z,38.00
2022-08-05T16:48:05.629Z,38.30
2022-08-05T16:50:32.608Z,37.80
2022-08-05T16:53:12.107Z,38.00
2022-08-05T16:55:47.535Z,37.50
2022-08-05T16:58:14.581Z,37.20
2022-08-05T17:00:48.078Z,37.40
2022-08-05T17:03:20.130Z,37.80
2022-08-05T17:05:53.728Z,37.80
2022-08-05T17:08:33.394Z,37.90
2022-08-05T17:11:16.554Z,38.10
2022-08-05T17:13:44.320Z,38.10
2022-08-05T17:16:29.936Z,38.90
2022-08-05T17:18:59.068Z,39.30
2022-08-05T17:21:25.896Z,39.20
2022-08-05T17:24:04.424Z,39.20
2022-08-05T17:26:36.136Z,39.00
2022-08-05T17:29:10.155Z,39.00
2022-08-05T17:31:56.558Z,39.00
2022-08-05T17:34:30.071Z,39.20
2022-08-05T17:37:02.419Z,39.00
2022-08-05T17:39:34.081Z,38.80
2022-08-05T17:42:19.821Z,38.60
2022-08-05T17:44:51.061Z,38.70
2022-08-05T17:47:22.303Z,39.10
2022-08-05T17:50:00.562Z,39.40
2022-08-05T17:52:32.096Z,40.00
2022-08-05T17:54:59.489Z,40.00
2022-08-05T17:57:29.714Z,40.60
2022-08-05T18:00:03.394Z,40.50
2022-08-05T18:02:31.934Z,40.50
2022-08-05T18:05:02.769Z,40.40
2022-08-05T18:07:40.855Z,40.30
2022-08-05T18:10:09.765Z,40.50
2022-08-05T18:12:40.061Z,40.50
2022-08-05T18:15:08.787Z,40.70
2022-08-05T18:17:58.634Z,41.00
2022-08-05T18:20:29.481Z,41.20
2022-08-05T18:23:11.503Z,41.40
2022-08-05T18:25:45.302Z,41.50
2022-08-05T18:28:17.508Z,41.30
2022-08-05T18:30:45.924Z,41.40
2022-08-05T18:33:18.005Z,41.80
2022-08-05T18:36:00.960Z,43.20
2022-08-05T18:38:34.289Z,42.10
2022-08-05T18:41:56.093Z,42.30
2022-08-05T18:43:55.739Z,43.00
2022-08-05T18:46:26.037Z,43.30
2022-08-05T18:48:55.805Z,43.30
2022-08-05T18:52:06.811Z,43.30
2022-08-05T18:54:31.583Z,43.50
2022-08-05T18:57:01.145Z,43.70
2022-08-05T18:59:43.495Z,43.90
2022-08-05T19:02:27.866Z,44.00
2022-08-05T19:05:02.153Z,44.00
2022-08-05T19:07:47.947Z,45.20
2022-08-05T19:10:26.580Z,44.30
2022-08-05T19:12:55.831Z,44.50
2022-08-05T19:15:57.696Z,44.80
2022-08-05T19:18:22.228Z,44.90
2022-08-05T19:20:54.331Z,44.60
2022-08-05T19:24:05.377Z,44.70
2022-08-05T19:26:09.562Z,44.70
2022-08-05T19:28:41.859Z,44.80
2022-08-05T19:31:09.789Z,44.70
2022-08-05T19:33:48.219Z,44.70
2022-08-05T19:36:23.254Z,44.80
2022-08-05T19:38:49.948Z,44.80
2022-08-05T19:41:16.669Z,45.00
2022-08-05T19:44:06.226Z,45.10
2022-08-05T19:46:37.765Z,45.20
2022-08-05T19:49:06.979Z,45.30
2022-08-05T19:52:05.206Z,45.40
2022-08-05T19:54:29.681Z,45.40
2022-08-05T19:56:59.728Z,45.50
2022-08-05T19:59:56.308Z,45.60
2022-08-05T20:02:18.047Z,45.90
2022-08-05T20:04:46.372Z,46.10
2022-08-05T20:07:15.684Z,46.30
2022-08-05T20:10:11.594Z,46.50
2022-08-05T20:12:46.380Z,46.80
2022-08-05T20:15:48.077Z,47.00
2022-08-05T20:18:09.685Z,47.20
2022-08-05T20:20:38.078Z,47.40
2022-08-05T20:23:05.438Z,47.50
2022-08-05T20:25:33.787Z,47.70
2022-08-05T20:28:13.693Z,47.90
2022-08-05T20:30:43.869Z,47.90
2022-08-05T20:33:11.813Z,48.20
2022-08-05T20:35:45.507Z,48.50
2022-08-05T20:38:20.071Z,48.70
2022-08-05T20:40:55.340Z,48.90
2022-08-05T20:43:57.405Z,48.90
2022-08-05T20:46:18.251Z,49.00
2022-08-05T20:48:51.714Z,49.10
2022-08-05T20:51:18.561Z,49.30
2022-08-05T20:53:56.420Z,49.40
2022-08-05T20:56:29.147Z,49.60
2022-08-05T20:59:04.102Z,49.70
2022-08-05T21:01:41.290Z,49.60
2022-08-05T21:04:10.783Z,50.00
2022-08-05T21:06:45.359Z,50.40
2022-08-05T21:09:15.914Z,50.50
2022-08-05T21:12:06.910Z,50.90
2022-08-05T21:14:32.051Z,51.10
2022-08-05T21:17:05.902Z,51.40
2022-08-05T21:19:46.939Z,52.00
2022-08-05T21:22:18.642Z,52.10
2022-08-05T21:24:51.833Z,52.30
2022-08-05T21:27:24.815Z,52.50
2022-08-05T21:29:55.444Z,52.80
2022-08-05T21:32:24.407Z,53.10
2022-08-05T21:34:56.036Z,53.10
2022-08-05T21:37:41.024Z,53.40
2022-08-05T21:40:13.119Z,53.80
2022-08-05T21:42:44.262Z,53.90
2022-08-05T21:45:13.597Z,54.10
2022-08-05T21:47:56.953Z,54.20
2022-08-05T21:50:27.933Z,54.70
2022-08-05T21:52:58.772Z,54.70
2022-08-05T21:56:01.418Z,54.90
2022-08-05T21:58:12.711Z,55.30
2022-08-05T22:00:40.085Z,55.10
2022-08-05T22:03:07.324Z,55.50
2022-08-05T22:05:48.613Z,55.50
2022-08-05T22:08:22.089Z,55.60
2022-08-05T22:10:51.266Z,55.70
2022-08-05T22:14:19.431Z,56.10
2022-08-05T22:16:20.412Z,56.10
2022-08-05T22:18:52.487Z,56.30
2022-08-05T22:21:19.957Z,56.60
2022-08-05T22:24:09.001Z,56.80
2022-08-05T22:26:58.522Z,56.80
2022-08-05T22:29:30.833Z,57.20
2022-08-05T22:32:03.169Z,57.30
2022-08-05T22:34:30.960Z,57.50
2022-08-05T22:36:58.534Z,57.60
2022-08-05T22:39:30.963Z,57.90
2022-08-05T22:42:10.353Z,57.90
2022-08-05T22:44:40.089Z,58.10
2022-08-05T22:47:06.993Z,58.30
2022-08-05T22:50:20.594Z,58.30
2022-08-05T22:52:32.569Z,58.50
2022-08-05T22:55:02.377Z,58.80
2022-08-05T22:57:36.221Z,58.70
2022-08-05T23:00:08.076Z,59.00
2022-08-05T23:02:46.393Z,59.40
2022-08-05T23:05:15.390Z,59.10
2022-08-05T23:07:45.223Z,59.10
2022-08-05T23:10:16.411Z,59.30
2022-08-05T23:12:47.218Z,59.30
2022-08-05T23:15:18.209Z,59.40
2022-08-05T23:18:02.464Z,59.70
2022-08-05T23:20:37.236Z,59.60
2022-08-05T23:23:08.258Z,59.80
2022-08-05T23:25:52.523Z,59.80
2022-08-05T23:28:22.894Z,60.00
2022-08-05T23:30:53.088Z,60.00
2022-08-05T23:33:25.778Z,60.00
2022-08-05T23:35:56.129Z,60.10
2022-08-05T23:38:24.172Z,60.20
2022-08-05T23:40:52.862Z,60.30
2022-08-05T23:43:25.206Z,60.40
2022-08-05T23:46:20.997Z,60.40
2022-08-05T23:49:00.678Z,60.60
2022-08-05T23:51:53.954Z,60.70
2022-08-05T23:54:29.845Z,60.90
2022-08-05T23:57:03.849Z,61.20
